Time;durP1;ratioP1;P1;durP2;ratioP2;P2;SDS_P1;SDS_P2;PMS_P1;PMS_P2;Temp;Humidity;BMP_temperature;BMP_pressure;BME280_temperature;BME280_humidity;BME280_pressure;Samples;Min_cycle;Max_cycle;Signal;HPM_P1;HPM_P2
2021/03/04 00:00:44;;;;;;;28.27;12.15;;;7.00;64.10;;;;;;1699082;84;21614;-75
2021/03/04 00:03:15;;;;;;;30.82;11.30;;;7.00;64.10;;;;;;1699402;84;21101;-76
2021/03/04 00:05:43;;;;;;;24.05;11.83;;;6.90;64.70;;;;;;1699093;84;21172;-75
2021/03/04 00:08:12;;;;;;;29.85;13.32;;;6.90;65.00;;;;;;1699284;84;21598;-76
2021/03/04 00:10:40;;;;;;;26.95;13.25;;;6.80;65.20;;;;;;1699115;84;21171;-76
2021/03/04 00:13:08;;;;;;;24.27;11.75;;;6.70;65.00;;;;;;1699193;83;21146;-75
2021/03/04 00:15:38;;;;;;;23.80;11.70;;;6.70;65.40;;;;;;1699117;84;21135;-76
2021/03/04 00:18:07;;;;;;;22.32;11.65;;;6.70;65.60;;;;;;1699181;84;21931;-77
2021/03/04 00:20:35;;;;;;;25.90;12.25;;;6.70;65.50;;;;;;1697954;83;21132;-77
2021/03/04 00:23:04;;;;;;;23.77;11.60;;;6.70;65.10;;;;;;1693963;85;21302;-76
2021/03/04 00:25:35;;;;;;;27.58;12.07;;;6.70;65.10;;;;;;1693861;84;21302;-75
2021/03/04 00:28:05;;;;;;;21.62;11.03;;;6.60;65.00;;;;;;1694253;84;21109;-76
2021/03/04 00:30:33;;;;;;;21.93;10.98;;;6.60;65.30;;;;;;1693978;84;21176;-75
2021/03/04 00:33:01;;;;;;;22.40;11.43;;;6.60;65.30;;;;;;1693875;84;21298;-75
2021/03/04 00:35:30;;;;;;;23.98;11.40;;;6.60;65.20;;;;;;1693857;84;21283;-76
2021/03/04 00:37:58;;;;;;;23.87;11.43;;;6.70;65.50;;;;;;1693880;85;21179;-74
2021/03/04 00:40:26;;;;;;;23.52;12.18;;;6.70;65.10;;;;;;1694104;84;21168;-75
2021/03/04 00:42:57;;;;;;;22.32;11.50;;;6.60;65.10;;;;;;1694001;84;21164;-74
2021/03/04 00:45:27;;;;;;;26.20;12.13;;;6.70;65.60;;;;;;1694118;84;21594;-75
2021/03/04 00:48:01;;;;;;;25.12;11.68;;;6.60;65.90;;;;;;1693455;84;21291;-76
2021/03/04 00:50:29;;;;;;;23.45;12.07;;;6.50;66.00;;;;;;1693926;84;21753;-75
2021/03/04 00:52:57;;;;;;;25.77;11.85;;;6.40;66.60;;;;;;1693938;84;21298;-75
2021/03/04 00:55:30;;;;;;;23.27;11.12;;;6.30;67.10;;;;;;1693881;84;21121;-76
2021/03/04 00:57:58;;;;;;;25.85;12.03;;;6.30;67.30;;;;;;1693855;84;21360;-75
2021/03/04 01:00:27;;;;;;;23.35;11.57;;;6.40;66.80;;;;;;1693815;84;21773;-74
2021/03/04 01:02:55;;;;;;;23.50;11.25;;;6.40;66.90;;;;;;1694317;85;21171;-73
2021/03/04 01:05:25;;;;;;;23.90;11.38;;;6.40;67.50;;;;;;1693837;84;21301;-75
2021/03/04 01:07:53;;;;;;;22.65;11.35;;;6.30;67.20;;;;;;1693797;84;21318;-75
2021/03/04 01:10:29;;;;;;;24.52;11.48;;;6.30;67.80;;;;;;1694165;84;21528;-75
2021/03/04 01:12:57;;;;;;;22.00;10.48;;;6.30;67.30;;;;;;1694032;84;21283;-75
2021/03/04 01:15:25;;;;;;;24.32;10.82;;;6.30;67.60;;;;;;1694000;84;21326;-75
2021/03/04 01:17:54;;;;;;;21.87;10.28;;;6.30;67.60;;;;;;1693974;85;21348;-75
2021/03/04 01:20:26;;;;;;;22.13;10.55;;;6.40;66.80;;;;;;1693727;84;21188;-75
2021/03/04 01:22:55;;;;;;;18.80;10.08;;;6.30;66.50;;;;;;1693962;84;21129;-76
2021/03/04 01:25:23;;;;;;;24.20;11.10;;;6.30;66.60;;;;;;1693825;84;21298;-75
2021/03/04 01:27:55;;;;;;;23.42;11.93;;;6.20;66.50;;;;;;1693249;84;21607;-75
2021/03/04 01:30:29;;;;;;;23.35;10.93;;;6.30;66.70;;;;;;1694003;84;21590;-75
2021/03/04 01:32:59;;;;;;;20.73;10.77;;;6.40;66.80;;;;;;1693466;84;21294;-75
2021/03/04 01:35:27;;;;;;;17.48;9.30;;;6.40;65.90;;;;;;1693920;84;21297;-75
2021/03/04 01:37:55;;;;;;;20.92;10.15;;;6.50;65.90;;;;;;1693808;84;21290;-75
2021/03/04 01:40:23;;;;;;;22.77;10.35;;;6.50;65.90;;;;;;1693964;85;21136;-76
2021/03/04 01:42:52;;;;;;;20.15;10.15;;;6.40;65.60;;;;;;1693892;84;21733;-77
2021/03/04 01:45:20;;;;;;;21.82;10.75;;;6.40;65.80;;;;;;1693910;84;21682;-78
2021/03/04 01:47:52;;;;;;;20.40;10.05;;;6.40;66.20;;;;;;1693897;84;21306;-77
2021/03/04 01:50:22;;;;;;;21.17;9.88;;;6.50;66.20;;;;;;1694035;85;21286;-78
2021/03/04 01:52:52;;;;;;;20.62;10.10;;;6.40;66.70;;;;;;1694366;84;21121;-77
2021/03/04 01:55:20;;;;;;;20.35;9.95;;;6.40;66.90;;;;;;1693834;84;21591;-77
2021/03/04 01:57:51;;;;;;;24.18;10.63;;;6.20;67.70;;;;;;1694159;84;21148;-76
2021/03/04 02:00:21;;;;;;;21.93;10.50;;;6.10;68.40;;;;;;1693782;85;21281;-76
2021/03/04 02:02:49;;;;;;;25.62;11.60;;;6.10;68.30;;;;;;1693820;84;21192;-76
2021/03/04 02:05:18;;;;;;;21.50;10.05;;;6.10;68.50;;;;;;1694081;85;21148;-75
2021/03/04 02:08:16;;;;;;;23.65;11.05;;;5.90;69.40;;;;;;1693807;84;21318;-76
2021/03/04 02:10:52;;;;;;;19.52;9.88;;;5.80;69.80;;;;;;1693934;84;21298;-75
2021/03/04 02:13:37;;;;;;;26.12;10.70;;;5.80;69.80;;;;;;1693905;84;21235;-75
2021/03/04 02:16:36;;;;;;;22.73;10.32;;;5.80;69.90;;;;;;1692493;84;21150;-76
2021/03/04 02:19:41;;;;;;;22.80;11.30;;;5.70;70.60;;;;;;1693085;84;21666;-77
2021/03/04 02:22:38;;;;;;;23.50;10.58;;;5.60;70.50;;;;;;1693323;84;21507;-76
2021/03/04 02:25:20;;;;;;;22.30;11.08;;;5.60;71.40;;;;;;1707360;84;21193;-75
2021/03/04 02:27:51;;;;;;;23.15;10.20;;;5.60;71.40;;;;;;1693331;84;21106;-77
2021/03/04 02:30:27;;;;;;;23.98;11.00;;;5.60;71.90;;;;;;1693380;85;21157;-77
2021/03/04 02:33:02;;;;;;;22.00;9.80;;;5.70;71.50;;;;;;1693183;84;21153;-77
2021/03/04 02:35:35;;;;;;;20.95;10.50;;;5.80;71.20;;;;;;1693365;84;21140;-78
2021/03/04 02:38:15;;;;;;;24.82;10.70;;;5.70;71.80;;;;;;1693388;84;21109;-79
2021/03/04 02:40:49;;;;;;;21.05;10.75;;;5.60;71.10;;;;;;1693045;84;21188;-77
2021/03/04 02:43:22;;;;;;;21.65;10.00;;;5.60;71.10;;;;;;1693401;85;21144;-76
2021/03/04 02:45:52;;;;;;;21.97;10.45;;;5.50;70.80;;;;;;1693276;84;21160;-77
2021/03/04 02:48:26;;;;;;;22.10;10.25;;;5.50;71.20;;;;;;1691666;84;21161;-77
2021/03/04 02:50:56;;;;;;;20.75;10.78;;;5.50;71.50;;;;;;1693298;84;21570;-77
2021/03/04 02:53:25;;;;;;;20.60;10.40;;;5.40;71.10;;;;;;1693251;84;21599;-76
2021/03/04 02:55:56;;;;;;;25.30;10.95;;;5.40;71.30;;;;;;1693868;84;21302;-76
2021/03/04 02:58:27;;;;;;;24.47;11.18;;;5.30;71.70;;;;;;1693281;84;21161;-75
2021/03/04 03:00:56;;;;;;;24.87;11.28;;;5.30;72.00;;;;;;1693877;84;21291;-76
2021/03/04 03:03:26;;;;;;;23.12;11.73;;;5.20;71.90;;;;;;1693378;84;21622;-76
2021/03/04 03:05:55;;;;;;;22.45;11.08;;;5.30;72.30;;;;;;1693456;84;21164;-76
2021/03/04 03:08:24;;;;;;;24.70;10.70;;;5.20;71.90;;;;;;1693359;84;21152;-76
2021/03/04 03:10:52;;;;;;;22.22;10.72;;;5.20;71.70;;;;;;1693242;84;21164;-76
2021/03/04 03:13:21;;;;;;;23.45;10.40;;;5.10;72.50;;;;;;1693246;84;21169;-77
2021/03/04 03:15:51;;;;;;;21.62;10.98;;;5.10;72.40;;;;;;1693536;84;21593;-77
2021/03/04 03:18:19;;;;;;;24.07;10.60;;;5.00;72.50;;;;;;1693256;84;21175;-75
2021/03/04 03:20:47;;;;;;;22.50;10.63;;;4.90;72.40;;;;;;1693410;85;21164;-76
2021/03/04 03:23:15;;;;;;;22.82;10.40;;;4.90;72.80;;;;;;1693317;84;21172;-75
2021/03/04 03:25:43;;;;;;;23.15;10.18;;;4.90;73.10;;;;;;1693254;84;21155;-76
2021/03/04 03:28:15;;;;;;;22.15;10.30;;;4.90;73.40;;;;;;1693403;84;21129;-76
2021/03/04 03:30:47;;;;;;;24.45;10.88;;;5.00;73.30;;;;;;1693296;84;21168;-75
2021/03/04 03:33:18;;;;;;;22.70;10.55;;;4.90;72.80;;;;;;1693237;84;21226;-76
2021/03/04 03:35:47;;;;;;;22.42;10.68;;;5.00;72.60;;;;;;1693357;84;21106;-77
2021/03/04 03:38:17;;;;;;;24.77;11.48;;;5.00;72.90;;;;;;1693418;85;21157;-76
2021/03/04 03:40:49;;;;;;;22.62;10.30;;;4.90;73.00;;;;;;1693278;84;21156;-77
2021/03/04 03:43:18;;;;;;;23.90;10.43;;;4.90;73.00;;;;;;1693371;84;21137;-77
2021/03/04 03:45:50;;;;;;;23.47;10.48;;;4.90;73.50;;;;;;1693413;85;21156;-77
2021/03/04 03:48:23;;;;;;;25.60;10.50;;;5.00;73.60;;;;;;1693282;84;21160;-77
2021/03/04 03:50:54;;;;;;;21.93;10.58;;;5.00;74.00;;;;;;1693464;84;21140;-77
2021/03/04 03:53:25;;;;;;;21.52;10.63;;;5.00;73.00;;;;;;1693248;84;21157;-79
2021/03/04 03:55:55;;;;;;;25.52;9.53;;;5.00;72.90;;;;;;1693264;84;21140;-79
2021/03/04 03:58:26;;;;;;;21.97;10.48;;;4.90;73.40;;;;;;1693200;84;21159;-78
2021/03/04 04:00:57;;;;;;;23.30;10.72;;;4.90;73.60;;;;;;1693262;84;21125;-77
2021/03/04 04:03:26;;;;;;;22.98;10.75;;;5.00;73.40;;;;;;1693381;84;21145;-75
2021/03/04 04:05:58;;;;;;;24.85;11.25;;;5.00;73.70;;;;;;1693644;84;21149;-75
2021/03/04 04:08:29;;;;;;;24.77;11.75;;;5.00;73.20;;;;;;1693336;84;21149;-75
2021/03/04 04:10:56;;;;;;;25.92;11.93;;;5.00;73.40;;;;;;1693361;84;21152;-76
2021/03/04 04:13:25;;;;;;;26.35;11.60;;;4.90;73.80;;;;;;1693236;84;21201;-75
2021/03/04 04:15:52;;;;;;;25.32;12.03;;;4.80;73.70;;;;;;1693539;84;21155;-76
2021/03/04 04:18:21;;;;;;;29.57;12.63;;;4.90;75.10;;;;;;1693488;84;21164;-76
2021/03/04 04:20:51;;;;;;;26.12;11.60;;;5.00;74.00;;;;;;1693394;85;21196;-76
2021/03/04 04:23:19;;;;;;;23.95;10.53;;;5.00;74.10;;;;;;1693595;83;21167;-76
2021/03/04 04:25:52;;;;;;;24.95;10.80;;;5.00;73.90;;;;;;1693785;84;21309;-75
2021/03/04 04:28:22;;;;;;;22.37;10.38;;;5.00;73.70;;;;;;1693749;84;21160;-75
2021/03/04 04:30:53;;;;;;;22.82;10.05;;;5.00;74.30;;;;;;1693754;84;21101;-75
2021/03/04 04:33:24;;;;;;;23.77;10.90;;;5.00;74.60;;;;;;1693936;85;21278;-76
2021/03/04 04:35:56;;;;;;;25.88;11.08;;;5.10;74.30;;;;;;1694015;84;21140;-75
2021/03/04 04:38:24;;;;;;;22.82;11.70;;;5.10;73.90;;;;;;1693715;84;21164;-77
2021/03/04 04:40:53;;;;;;;28.00;10.88;;;5.10;74.50;;;;;;1694259;85;21165;-76
2021/03/04 04:43:21;;;;;;;21.73;10.90;;;5.00;75.20;;;;;;1693821;84;21322;-75
2021/03/04 04:45:49;;;;;;;18.80;10.18;;;5.00;74.30;;;;;;1693858;84;21299;-75
2021/03/04 04:48:19;;;;;;;24.52;11.80;;;5.00;76.20;;;;;;1694185;84;21136;-75
2021/03/04 04:50:48;;;;;;;24.95;10.82;;;5.00;74.40;;;;;;1692161;85;21326;-75
2021/03/04 04:53:16;;;;;;;22.80;11.28;;;5.00;73.90;;;;;;1693829;84;21372;-73
2021/03/04 04:55:45;;;;;;;26.73;12.23;;;5.10;73.70;;;;;;1693897;84;21298;-75
2021/03/04 04:58:13;;;;;;;27.10;11.75;;;5.00;73.40;;;;;;1694106;84;21193;-74
2021/03/04 05:00:41;;;;;;;28.27;13.00;;;4.90;73.60;;;;;;1694388;84;21184;-74
2021/03/04 05:03:11;;;;;;;29.18;12.30;;;4.80;74.20;;;;;;1694277;84;21157;-73
2021/03/04 05:05:39;;;;;;;28.27;12.68;;;4.80;74.70;;;;;;1693855;84;21310;-74
2021/03/04 05:08:07;;;;;;;27.95;11.25;;;4.80;75.10;;;;;;1693962;84;21294;-75
2021/03/04 05:10:37;;;;;;;25.32;12.43;;;4.80;74.80;;;;;;1693993;85;21156;-74
2021/03/04 05:13:05;;;;;;;28.05;12.37;;;4.80;75.40;;;;;;1694116;85;21167;-76
2021/03/04 05:15:37;;;;;;;25.37;10.80;;;4.80;75.50;;;;;;1693904;84;21606;-75
2021/03/04 05:18:05;;;;;;;20.43;9.58;;;4.80;74.90;;;;;;1693844;84;21299;-75
2021/03/04 05:20:34;;;;;;;21.85;9.95;;;4.90;74.40;;;;;;1693815;84;21294;-75
2021/03/04 05:23:02;;;;;;;19.02;9.60;;;5.00;73.80;;;;;;1693582;84;21171;-75
2021/03/04 05:25:30;;;;;;;19.40;9.15;;;5.10;72.60;;;;;;1693673;84;21184;-74
2021/03/04 05:27:58;;;;;;;18.90;9.50;;;5.10;71.50;;;;;;1693311;84;21155;-75
2021/03/04 05:30:26;;;;;;;19.32;9.03;;;5.30;71.00;;;;;;1693418;84;21599;-73
2021/03/04 05:32:54;;;;;;;19.90;9.18;;;5.30;71.40;;;;;;1693331;84;21164;-75
2021/03/04 05:35:23;;;;;;;25.23;10.45;;;5.50;70.40;;;;;;1693407;85;21572;-74
2021/03/04 05:37:54;;;;;;;19.82;9.15;;;5.40;71.20;;;;;;1693353;84;21145;-76
2021/03/04 05:40:23;;;;;;;18.48;9.18;;;5.50;71.60;;;;;;1693246;84;21173;-75
2021/03/04 05:42:53;;;;;;;21.17;9.68;;;5.50;72.30;;;;;;1693402;85;21163;-75
2021/03/04 05:45:23;;;;;;;22.25;9.48;;;5.50;72.70;;;;;;1693266;84;21172;-75
2021/03/04 05:47:55;;;;;;;20.55;9.68;;;5.40;72.60;;;;;;1693592;84;21164;-75
2021/03/04 05:50:27;;;;;;;20.17;9.68;;;5.50;72.70;;;;;;1693306;84;21137;-77
2021/03/04 05:53:21;;;;;;;21.52;10.20;;;5.50;72.00;;;;;;1693462;85;21109;-76
2021/03/04 05:55:49;;;;;;;21.57;10.85;;;5.60;71.70;;;;;;1693412;84;21162;-78
2021/03/04 05:58:18;;;;;;;33.48;14.65;;;5.70;71.20;;;;;;1693280;84;21167;-75
2021/03/04 06:00:47;;;;;;;27.90;13.00;;;5.60;70.80;;;;;;1693260;84;21188;-76
2021/03/04 06:03:16;;;;;;;27.22;12.98;;;5.60;70.80;;;;;;1693311;84;21171;-75
2021/03/04 06:05:44;;;;;;;22.20;11.95;;;5.60;71.20;;;;;;1693309;84;21160;-76
2021/03/04 06:08:13;;;;;;;23.73;12.23;;;5.60;71.30;;;;;;1693471;85;21172;-76
2021/03/04 06:10:40;;;;;;;28.42;12.50;;;5.60;71.80;;;;;;1693265;84;21213;-74
2021/03/04 06:13:12;;;;;;;46.68;18.60;;;5.60;72.60;;;;;;1693183;84;21168;-73
2021/03/04 06:15:45;;;;;;;37.30;15.30;;;5.70;71.80;;;;;;1716744;83;21145;-75
2021/03/04 06:18:14;;;;;;;32.85;14.35;;;5.70;71.70;;;;;;1725739;82;21301;-72
2021/03/04 06:20:43;;;;;;;25.92;10.85;;;5.70;71.70;;;;;;1715351;83;21179;-75
2021/03/04 06:23:11;;;;;;;29.87;14.95;;;5.70;72.40;;;;;;1727096;83;21701;-77
2021/03/04 06:25:39;;;;;;;44.83;19.92;;;5.80;72.50;;;;;;1723186;83;21170;-75
2021/03/04 06:28:09;;;;;;;45.52;19.75;;;5.80;72.20;;;;;;1723356;83;21147;-79
2021/03/04 06:30:41;;;;;;;26.33;11.40;;;5.70;72.20;;;;;;1726232;83;21294;-76
2021/03/04 06:33:12;;;;;;;21.73;9.40;;;5.80;72.30;;;;;;1698141;84;21713;-78
2021/03/04 06:35:46;;;;;;;27.77;12.63;;;5.90;70.80;;;;;;1685231;85;21602;-77
2021/03/04 06:38:21;;;;;;;28.62;13.03;;;6.00;71.40;;;;;;1682722;85;21221;-71
2021/03/04 06:40:52;;;;;;;22.25;11.20;;;5.90;71.90;;;;;;1683313;85;21558;-74
2021/03/04 06:43:24;;;;;;;27.55;10.72;;;5.90;71.90;;;;;;1682233;85;21310;-75
2021/03/04 06:46:04;;;;;;;28.40;12.58;;;6.00;72.30;;;;;;1685094;84;21137;-75
2021/03/04 06:48:35;;;;;;;24.00;11.45;;;6.20;71.40;;;;;;1680170;85;21145;-72
2021/03/04 06:51:07;;;;;;;30.97;11.10;;;6.30;70.70;;;;;;1683529;84;21151;-77
2021/03/04 06:53:35;;;;;;;26.52;11.88;;;6.30;70.40;;;;;;1688935;84;21142;-72
2021/03/04 06:56:05;;;;;;;31.82;11.10;;;6.10;71.10;;;;;;1691181;84;21166;-76
2021/03/04 06:58:38;;;;;;;25.32;13.13;;;6.20;71.80;;;;;;1694281;84;21558;-76
2021/03/04 07:01:18;;;;;;;24.02;10.60;;;6.20;70.20;;;;;;1694093;83;21174;-74
2021/03/04 07:03:51;;;;;;;24.12;9.98;;;6.20;69.70;;;;;;1682550;85;21199;-74
2021/03/04 07:06:24;;;;;;;23.50;10.40;;;6.30;68.80;;;;;;1696349;84;21157;-75
2021/03/04 07:08:54;;;;;;;23.35;11.53;;;6.50;67.70;;;;;;1712576;83;21129;-73
2021/03/04 07:11:25;;;;;;;28.32;11.53;;;6.50;68.80;;;;;;1714057;83;21131;-74
2021/03/04 07:13:57;;;;;;;30.82;13.08;;;6.50;68.80;;;;;;1697784;84;21187;-78
2021/03/04 07:16:45;;;;;;;31.97;14.07;;;6.60;68.10;;;;;;1697643;84;21151;-78
2021/03/04 07:19:19;;;;;;;31.17;13.35;;;6.70;68.30;;;;;;1711354;83;21192;-73
2021/03/04 07:21:51;;;;;;;41.13;14.07;;;6.70;67.10;;;;;;1710907;83;21617;-75
2021/03/04 07:24:21;;;;;;;29.55;13.83;;;6.80;67.30;;;;;;1712752;83;21544;-78
2021/03/04 07:26:51;;;;;;;32.73;15.83;;;6.80;67.30;;;;;;1713951;83;21146;-74
2021/03/04 07:29:24;;;;;;;35.55;17.45;;;6.90;67.40;;;;;;1710758;83;21596;-75
2021/03/04 07:31:53;;;;;;;35.85;17.92;;;6.90;67.20;;;;;;1689408;83;21566;-76
2021/03/04 07:34:26;;;;;;;39.88;16.62;;;7.00;66.30;;;;;;1710402;83;21166;-75
2021/03/04 07:36:57;;;;;;;44.23;16.00;;;7.00;67.20;;;;;;1712997;83;21161;-75
2021/03/04 07:39:35;;;;;;;41.23;18.12;;;7.10;67.60;;;;;;1709488;83;21170;-75
2021/03/04 07:42:21;;;;;;;45.20;18.20;;;7.10;67.30;;;;;;1710717;83;21589;-73
2021/03/04 07:44:54;;;;;;;40.12;17.42;;;7.10;66.90;;;;;;1712937;83;21700;-74
2021/03/04 07:47:29;;;;;;;35.20;16.57;;;7.20;67.60;;;;;;1703010;83;21300;-73
2021/03/04 07:50:00;;;;;;;35.78;16.70;;;7.30;66.80;;;;;;1707362;84;21150;-71
2021/03/04 07:52:28;;;;;;;111.57;21.17;;;7.40;65.90;;;;;;1700982;83;21283;-71
2021/03/04 07:55:01;;;;;;;43.98;17.42;;;7.40;66.00;;;;;;1707929;83;21701;-71
2021/03/04 07:57:30;;;;;;;41.42;18.35;;;7.50;65.60;;;;;;1706173;83;21629;-71
2021/03/04 08:00:05;;;;;;;40.55;16.90;;;7.60;65.20;;;;;;1713986;83;21317;-69
2021/03/04 08:02:43;;;;;;;52.62;18.57;;;7.70;65.00;;;;;;1710829;83;21652;-71
2021/03/04 08:05:33;;;;;;;41.55;17.62;;;7.60;64.90;;;;;;1714391;83;21545;-70
2021/03/04 08:08:17;;;;;;;41.08;17.60;;;7.70;64.90;;;;;;1703873;83;21179;-73
2021/03/04 08:10:54;;;;;;;45.43;18.95;;;7.70;64.30;;;;;;1713358;83;21138;-75
2021/03/04 08:13:36;;;;;;;50.33;19.87;;;7.90;64.10;;;;;;1703102;83;21277;-79
2021/03/04 08:16:18;;;;;;;55.38;21.35;;;8.00;63.90;;;;;;1698942;84;21194;-73
2021/03/04 08:18:59;;;;;;;47.25;19.60;;;8.00;63.90;;;;;;1694235;85;21177;-72
2021/03/04 08:21:27;;;;;;;53.38;21.12;;;8.10;64.10;;;;;;1703046;84;21143;-73
2021/03/04 08:23:55;;;;;;;39.80;19.50;;;8.20;63.70;;;;;;1704447;83;21143;-76
2021/03/04 08:26:29;;;;;;;42.55;19.57;;;8.20;63.90;;;;;;1707099;83;21149;-74
2021/03/04 08:29:10;;;;;;;45.70;19.65;;;8.30;62.80;;;;;;1688171;85;21584;-74
2021/03/04 08:31:50;;;;;;;56.83;26.23;;;8.40;61.50;;;;;;1688486;85;21150;-71
2021/03/04 08:34:19;;;;;;;45.67;20.43;;;8.20;61.60;;;;;;1706193;83;21126;-73
2021/03/04 08:36:53;;;;;;;70.52;22.05;;;8.30;63.30;;;;;;1707383;83;21133;-73
2021/03/04 08:39:23;;;;;;;63.10;24.55;;;8.30;62.40;;;;;;1683147;84;21551;-73
2021/03/04 08:42:02;;;;;;;53.10;22.20;;;8.40;62.30;;;;;;1675102;85;21560;-72
2021/03/04 08:44:29;;;;;;;54.60;24.32;;;8.40;61.70;;;;;;1674963;85;21295;-70
2021/03/04 08:46:58;;;;;;;60.78;25.80;;;8.50;62.50;;;;;;1675167;86;21129;-72
2021/03/04 08:49:27;;;;;;;66.12;28.87;;;8.50;61.70;;;;;;1688412;84;21306;-70
2021/03/04 08:51:57;;;;;;;71.05;30.75;;;8.60;61.40;;;;;;1686919;84;21303;-76
2021/03/04 08:54:29;;;;;;;75.83;32.53;;;8.70;62.10;;;;;;1688018;83;21125;-73
2021/03/04 08:57:05;;;;;;;72.58;30.35;;;8.80;61.20;;;;;;1687479;84;21200;-71
2021/03/04 08:59:33;;;;;;;75.97;31.13;;;8.70;61.40;;;;;;1684133;85;21146;-72
2021/03/04 09:02:15;;;;;;;60.30;29.72;;;8.70;61.50;;;;;;1686051;84;21592;-72
2021/03/04 09:04:46;;;;;;;60.33;28.70;;;8.70;61.50;;;;;;1688253;84;21310;-70
2021/03/04 09:07:29;;;;;;;57.48;28.07;;;8.80;61.50;;;;;;1686847;83;21275;-71
2021/03/04 09:10:04;;;;;;;57.90;27.32;;;8.80;62.30;;;;;;1688159;85;21135;-73
2021/03/04 09:12:45;;;;;;;50.58;25.92;;;8.90;62.20;;;;;;1694166;83;21155;-70
2021/03/04 09:15:17;;;;;;;54.67;25.08;;;8.90;61.60;;;;;;1699525;83;21579;-72
2021/03/04 09:17:46;;;;;;;55.45;25.57;;;9.00;61.90;;;;;;1699457;84;21271;-73
2021/03/04 09:20:16;;;;;;;60.55;26.62;;;9.00;62.30;;;;;;1690717;84;21701;-71
2021/03/04 09:22:44;;;;;;;52.90;25.30;;;9.10;61.50;;;;;;1688281;84;21161;-70
2021/03/04 09:25:18;;;;;;;57.53;26.82;;;9.20;61.10;;;;;;1708424;83;21154;-72
2021/03/04 09:27:47;;;;;;;53.38;27.32;;;9.30;61.00;;;;;;1707327;83;21162;-72
2021/03/04 09:30:30;;;;;;;48.52;25.32;;;9.40;60.60;;;;;;1711016;83;21149;-72
2021/03/04 09:32:58;;;;;;;51.88;26.10;;;9.40;60.30;;;;;;1712558;83;21141;-73
2021/03/04 09:35:27;;;;;;;58.38;26.60;;;9.60;60.50;;;;;;1713078;83;21140;-73
2021/03/04 09:38:07;;;;;;;58.58;26.45;;;9.60;60.00;;;;;;1709303;83;21160;-70
2021/03/04 09:40:35;;;;;;;54.60;28.30;;;9.60;60.00;;;;;;1714386;83;21145;-71
2021/03/04 09:43:08;;;;;;;61.00;28.23;;;9.70;60.10;;;;;;1712811;83;21156;-73
2021/03/04 09:45:42;;;;;;;59.13;26.00;;;9.70;60.20;;;;;;1711079;83;21148;-73
2021/03/04 09:48:12;;;;;;;49.73;27.30;;;9.70;60.70;;;;;;1712402;83;21594;-74
2021/03/04 09:50:54;;;;;;;54.33;28.02;;;9.80;61.40;;;;;;1713121;83;21155;-74
2021/03/04 09:53:24;;;;;;;58.42;27.37;;;9.90;62.00;;;;;;1711007;83;21141;-72
2021/03/04 09:55:52;;;;;;;57.50;27.70;;;9.90;60.60;;;;;;1712900;83;21587;-73
2021/03/04 09:58:24;;;;;;;53.33;27.67;;;9.80;60.90;;;;;;1712392;83;21172;-73
2021/03/04 10:01:01;;;;;;;52.43;28.42;;;9.90;61.30;;;;;;1710777;83;21571;-72
2021/03/04 10:03:35;;;;;;;62.13;29.07;;;9.90;61.50;;;;;;1712826;83;21153;-70
2021/03/04 10:06:09;;;;;;;52.60;27.10;;;10.00;59.60;;;;;;1713830;83;21158;-73
2021/03/04 10:08:42;;;;;;;55.08;28.35;;;10.10;59.70;;;;;;1724692;83;21185;-73
2021/03/04 10:11:23;;;;;;;54.80;27.37;;;10.10;59.40;;;;;;1717761;83;21623;-72
2021/03/04 10:13:51;;;;;;;62.30;29.23;;;10.10;60.20;;;;;;1725147;83;21564;-72
2021/03/04 10:16:20;;;;;;;55.25;26.95;;;10.10;59.50;;;;;;1713094;83;21164;-68
2021/03/04 10:18:50;;;;;;;60.67;26.57;;;10.10;59.70;;;;;;1711542;83;21579;-74
2021/03/04 10:21:19;;;;;;;49.23;24.92;;;10.10;59.10;;;;;;1711273;82;21180;-70
2021/03/04 10:23:49;;;;;;;47.08;23.65;;;10.10;58.50;;;;;;1721330;83;21544;-70
2021/03/04 10:26:17;;;;;;;50.03;25.05;;;10.10;59.00;;;;;;1695592;83;21162;-69
2021/03/04 10:28:45;;;;;;;53.65;23.25;;;10.20;58.50;;;;;;1694005;83;21171;-72
2021/03/04 10:31:13;;;;;;;46.10;23.12;;;10.30;58.10;;;;;;1694145;84;21637;-71
2021/03/04 10:33:41;;;;;;;41.15;22.25;;;10.30;58.10;;;;;;1694229;83;21195;-70
2021/03/04 10:36:10;;;;;;;46.15;22.48;;;10.40;57.50;;;;;;1696291;83;21166;-71
2021/03/04 10:38:38;;;;;;;44.93;22.10;;;10.40;57.90;;;;;;1708769;83;21616;-69
2021/03/04 10:41:06;;;;;;;47.83;22.60;;;10.50;56.50;;;;;;1713031;82;21163;-71
2021/03/04 10:43:34;;;;;;;46.33;22.95;;;10.50;56.60;;;;;;1697379;84;21198;-71
2021/03/04 10:46:02;;;;;;;46.45;23.67;;;10.60;56.70;;;;;;1697866;84;21160;-71
2021/03/04 10:48:31;;;;;;;43.48;23.25;;;10.60;56.80;;;;;;1703517;84;21175;-72
2021/03/04 10:51:02;;;;;;;43.17;23.05;;;10.60;57.00;;;;;;1700996;84;21274;-71
2021/03/04 10:53:30;;;;;;;46.28;23.85;;;10.60;56.80;;;;;;1711713;83;21597;-70
2021/03/04 10:55:58;;;;;;;44.58;21.73;;;10.60;56.90;;;;;;1713257;83;21151;-73
2021/03/04 10:58:26;;;;;;;49.27;24.02;;;10.60;57.40;;;;;;1703794;82;21159;-72
2021/03/04 11:00:54;;;;;;;58.65;25.00;;;10.70;56.90;;;;;;1702167;83;21198;-71
2021/03/04 11:03:23;;;;;;;49.33;23.95;;;10.60;56.80;;;;;;1705991;83;21136;-71
2021/03/04 11:05:51;;;;;;;45.25;23.85;;;10.70;56.90;;;;;;1711924;83;21293;-72
2021/03/04 11:08:20;;;;;;;50.25;24.07;;;10.70;56.90;;;;;;1710637;83;21517;-71
2021/03/04 11:10:51;;;;;;;44.38;23.32;;;10.80;57.20;;;;;;1712805;83;21182;-72
2021/03/04 11:13:19;;;;;;;54.63;25.02;;;10.80;57.70;;;;;;1716828;83;21175;-72
2021/03/04 11:15:48;;;;;;;45.10;24.47;;;10.90;58.10;;;;;;1718752;82;21156;-72
2021/03/04 11:18:18;;;;;;;52.65;24.37;;;11.10;57.50;;;;;;1712483;83;21596;-72
2021/03/04 11:20:46;;;;;;;44.98;23.32;;;11.10;57.10;;;;;;1712214;83;21203;-72
2021/03/04 11:23:15;;;;;;;49.83;23.38;;;11.20;56.60;;;;;;1703327;83;21158;-70
2021/03/04 11:25:45;;;;;;;54.77;24.27;;;11.30;56.70;;;;;;1708484;83;21193;-72
2021/03/04 11:28:13;;;;;;;55.63;25.17;;;11.40;56.40;;;;;;1712509;83;21166;-71
2021/03/04 11:30:42;;;;;;;48.23;24.35;;;11.50;55.80;;;;;;1703273;84;21189;-73
2021/03/04 11:33:11;;;;;;;47.33;24.35;;;11.60;56.20;;;;;;1700343;84;21154;-73
2021/03/04 11:35:40;;;;;;;52.45;26.57;;;11.70;56.50;;;;;;1707107;83;21160;-75
2021/03/04 11:38:08;;;;;;;46.02;24.45;;;11.80;55.80;;;;;;1705320;83;21306;-74
2021/03/04 11:40:36;;;;;;;50.30;24.65;;;11.80;55.10;;;;;;1711380;82;21180;-72
2021/03/04 11:43:04;;;;;;;49.10;24.85;;;11.90;54.90;;;;;;1708858;83;21142;-72
2021/03/04 11:45:32;;;;;;;48.70;26.07;;;12.00;54.90;;;;;;1704172;82;21553;-69
2021/03/04 11:48:00;;;;;;;46.85;25.72;;;12.10;55.00;;;;;;1704728;83;21162;-71
2021/03/04 11:50:29;;;;;;;44.23;23.98;;;12.10;55.00;;;;;;1705496;83;21184;-72
2021/03/04 11:52:57;;;;;;;45.95;25.80;;;12.20;54.60;;;;;;1707059;83;21286;-70
2021/03/04 11:55:25;;;;;;;46.15;25.02;;;12.20;54.70;;;;;;1711602;82;21654;-73
2021/03/04 11:57:53;;;;;;;48.10;25.17;;;12.20;54.70;;;;;;1712677;83;21193;-68
2021/03/04 12:00:22;;;;;;;44.88;24.87;;;12.20;54.30;;;;;;1712669;83;21193;-69
2021/03/04 12:02:52;;;;;;;46.45;25.27;;;12.10;54.80;;;;;;1707962;83;21604;-71
2021/03/04 12:05:20;;;;;;;48.50;25.60;;;12.20;54.50;;;;;;1708019;83;21183;-73
2021/03/04 12:07:48;;;;;;;58.65;28.60;;;12.20;54.60;;;;;;1711781;83;21588;-73
2021/03/04 12:10:16;;;;;;;52.30;27.93;;;12.20;55.20;;;;;;1715947;82;21171;-73
2021/03/04 12:12:44;;;;;;;56.90;28.92;;;12.20;54.70;;;;;;1698115;84;21221;-72
2021/03/04 12:15:16;;;;;;;55.12;29.45;;;12.20;55.80;;;;;;1711126;83;21158;-72
2021/03/04 12:17:45;;;;;;;58.58;28.02;;;12.20;55.30;;;;;;1712551;83;21589;-72
2021/03/04 12:20:14;;;;;;;51.92;27.37;;;12.20;55.70;;;;;;1702910;82;21226;-72
2021/03/04 12:22:45;;;;;;;54.85;28.25;;;12.20;55.50;;;;;;1706355;83;21145;-72
2021/03/04 12:25:14;;;;;;;57.62;27.60;;;12.20;56.00;;;;;;1706786;83;21298;-73
2021/03/04 12:27:42;;;;;;;60.90;30.65;;;12.20;55.40;;;;;;1707596;83;21583;-72
2021/03/04 12:30:13;;;;;;;55.40;30.62;;;12.10;56.10;;;;;;1714171;83;21139;-71
2021/03/04 12:32:41;;;;;;;59.33;31.25;;;12.00;55.90;;;;;;1697945;84;21310;-71
2021/03/04 12:35:11;;;;;;;64.92;32.98;;;12.00;56.70;;;;;;1711112;83;21565;-72
2021/03/04 12:37:41;;;;;;;58.65;31.40;;;11.90;57.40;;;;;;1712998;82;21316;-69
2021/03/04 12:40:11;;;;;;;62.65;32.70;;;11.90;57.60;;;;;;1697865;84;21333;-73
2021/03/04 12:42:39;;;;;;;62.90;31.55;;;11.80;58.00;;;;;;1711022;83;21627;-72
2021/03/04 12:45:09;;;;;;;58.60;30.35;;;11.90;58.40;;;;;;1713508;83;21132;-71
2021/03/04 12:47:37;;;;;;;64.95;32.33;;;12.00;58.40;;;;;;1697984;84;21397;-71
2021/03/04 12:50:07;;;;;;;59.23;30.60;;;12.00;58.30;;;;;;1697685;84;21711;-74
2021/03/04 12:52:36;;;;;;;58.35;29.67;;;12.00;58.50;;;;;;1711469;83;21158;-72
2021/03/04 12:55:05;;;;;;;73.25;36.40;;;12.00;58.70;;;;;;1717106;83;21154;-72